Time;durP1;ratioP1;P1;durP2;ratioP2;P2;SDS_P1;SDS_P2;PMS_P1;PMS_P2;Temp;Humidity;BMP_temperature;BMP_pressure;BME280_temperature;BME280_humidity;BME280_pressure;Samples;Min_cycle;Max_cycle;Signal;HPM_P1;HPM_P2
2023/10/24 00:00:32;;;;;;;34.83;17.77;;;;;;;;;;6242260;28;20081;-64
2023/10/24 00:03:53;;;;;;;36.63;17.13;;;;;;;;;;6241193;28;20505;-62
2023/10/24 00:06:53;;;;;;;37.00;18.15;;;;;;;;;;6242003;28;20049;-62
2023/10/24 00:09:54;;;;;;;34.95;17.85;;;;;;;;;;6241548;28;20497;-62
2023/10/24 00:12:54;;;;;;;35.58;16.88;;;;;;;;;;6240001;28;20511;-61
2023/10/24 00:15:56;;;;;;;36.22;18.08;;;;;;;;;;6239966;28;20088;-61
2023/10/24 00:18:57;;;;;;;36.55;17.50;;;;;;;;;;6242051;28;20077;-61
2023/10/24 00:21:58;;;;;;;39.85;17.95;;;;;;;;;;6241170;28;20132;-62
2023/10/24 00:24:58;;;;;;;35.95;18.77;;;;;;;;;;6239345;28;20050;-61
2023/10/24 00:27:59;;;;;;;39.03;16.73;;;;;;;;;;6240162;28;20041;-61
2023/10/24 00:31:00;;;;;;;31.92;17.75;;;;;;;;;;6240644;28;20164;-61
2023/10/24 00:34:01;;;;;;;35.20;16.80;;;;;;;;;;6251645;28;20045;-61
2023/10/24 00:37:02;;;;;;;36.45;17.60;;;;;;;;;;6245857;28;20041;-62
2023/10/24 00:40:04;;;;;;;37.22;17.15;;;;;;;;;;6242736;28;20605;-62
2023/10/24 00:43:05;;;;;;;36.78;17.15;;;;;;;;;;6242069;28;20107;-62
2023/10/24 00:46:07;;;;;;;36.17;17.70;;;;;;;;;;6241798;28;20388;-62
2023/10/24 00:49:08;;;;;;;35.83;17.73;;;;;;;;;;6239088;28;20424;-61
2023/10/24 00:52:09;;;;;;;34.73;16.27;;;;;;;;;;6239346;28;20060;-62
2023/10/24 00:55:10;;;;;;;31.85;15.82;;;;;;;;;;6241898;28;20049;-61
2023/10/24 00:58:12;;;;;;;35.92;17.00;;;;;;;;;;6245358;28;20103;-62
2023/10/24 01:01:13;;;;;;;34.08;17.30;;;;;;;;;;6245711;28;20072;-62
2023/10/24 01:04:14;;;;;;;37.90;16.92;;;;;;;;;;6243284;28;20118;-62
2023/10/24 01:07:14;;;;;;;34.80;16.70;;;;;;;;;;6246279;28;20065;-61
2023/10/24 01:10:15;;;;;;;38.95;16.75;;;;;;;;;;6245490;28;20087;-62
2023/10/24 01:13:16;;;;;;;36.92;17.33;;;;;;;;;;6245655;28;20045;-62
2023/10/24 01:16:17;;;;;;;36.53;16.17;;;;;;;;;;6244675;28;20041;-62
2023/10/24 01:19:17;;;;;;;30.58;15.32;;;;;;;;;;6244261;28;20519;-62
2023/10/24 01:22:18;;;;;;;34.80;15.68;;;;;;;;;;6245635;28;20064;-62
2023/10/24 01:25:20;;;;;;;34.05;16.45;;;;;;;;;;6244938;28;20049;-62
2023/10/24 01:28:20;;;;;;;30.63;15.38;;;;;;;;;;6244431;28;20049;-62
2023/10/24 01:31:21;;;;;;;35.45;15.77;;;;;;;;;;6244517;28;20049;-62
2023/10/24 01:34:22;;;;;;;32.25;15.50;;;;;;;;;;6257111;28;20055;-62
2023/10/24 01:37:22;;;;;;;33.60;15.20;;;;;;;;;;6246346;28;20049;-62
2023/10/24 01:40:23;;;;;;;36.33;16.25;;;;;;;;;;6243360;28;20195;-62
2023/10/24 01:43:24;;;;;;;31.67;15.32;;;;;;;;;;6241269;28;20053;-62
2023/10/24 01:46:25;;;;;;;28.83;15.05;;;;;;;;;;6245261;28;20171;-61
2023/10/24 01:49:25;;;;;;;30.33;14.60;;;;;;;;;;6244202;28;20041;-62
2023/10/24 01:52:26;;;;;;;29.52;14.55;;;;;;;;;;6242336;28;20053;-62
2023/10/24 01:55:26;;;;;;;37.40;16.00;;;;;;;;;;6241999;28;20041;-62
2023/10/24 01:58:27;;;;;;;34.90;15.43;;;;;;;;;;6245214;28;20045;-64
2023/10/24 02:01:27;;;;;;;32.22;16.52;;;;;;;;;;6244966;28;20049;-62
2023/10/24 02:04:28;;;;;;;34.40;16.02;;;;;;;;;;6243670;28;20069;-62
2023/10/24 02:07:29;;;;;;;31.83;16.17;;;;;;;;;;6243252;28;20095;-62
2023/10/24 02:10:29;;;;;;;41.47;19.77;;;;;;;;;;6242675;28;20447;-62
2023/10/24 02:13:30;;;;;;;35.53;16.10;;;;;;;;;;6241714;28;20100;-61
2023/10/24 02:16:30;;;;;;;32.63;15.82;;;;;;;;;;6245480;28;20149;-62
2023/10/24 02:19:31;;;;;;;31.77;14.82;;;;;;;;;;6244839;28;20140;-61
2023/10/24 02:22:32;;;;;;;36.00;15.95;;;;;;;;;;6243801;28;20504;-62
2023/10/24 02:25:36;;;;;;;35.40;18.13;;;;;;;;;;6243666;28;20041;-62
2023/10/24 02:28:37;;;;;;;37.95;19.17;;;;;;;;;;6243652;28;20056;-62
2023/10/24 02:31:37;;;;;;;44.78;21.17;;;;;;;;;;6241068;28;20049;-62
2023/10/24 02:34:38;;;;;;;43.88;19.38;;;;;;;;;;6256192;28;20037;-62
2023/10/24 02:37:39;;;;;;;46.67;21.02;;;;;;;;;;6251734;28;20401;-62
2023/10/24 02:40:39;;;;;;;41.80;20.40;;;;;;;;;;6243524;28;20086;-62
2023/10/24 02:43:40;;;;;;;47.08;24.52;;;;;;;;;;6242864;28;20053;-62
2023/10/24 02:46:41;;;;;;;43.20;19.95;;;;;;;;;;6243897;28;20132;-62
2023/10/24 02:49:41;;;;;;;40.58;20.05;;;;;;;;;;6245661;28;20057;-62
2023/10/24 02:52:42;;;;;;;43.25;19.27;;;;;;;;;;6248790;28;20104;-61
2023/10/24 02:55:42;;;;;;;36.38;18.55;;;;;;;;;;6242836;28;20047;-62
2023/10/24 02:58:43;;;;;;;35.22;17.88;;;;;;;;;;6242895;28;20053;-62
2023/10/24 03:01:43;;;;;;;35.38;18.08;;;;;;;;;;6242252;28;20045;-62
2023/10/24 03:04:44;;;;;;;45.53;19.48;;;;;;;;;;6242223;28;20041;-63
2023/10/24 03:07:45;;;;;;;34.40;17.65;;;;;;;;;;6243309;28;20050;-63
2023/10/24 03:10:45;;;;;;;33.53;17.23;;;;;;;;;;6243209;28;20061;-62
2023/10/24 03:13:46;;;;;;;35.53;15.52;;;;;;;;;;6242333;28;20432;-62
2023/10/24 03:16:48;;;;;;;31.52;16.20;;;;;;;;;;6240948;28;20038;-62
2023/10/24 03:19:49;;;;;;;32.42;16.08;;;;;;;;;;6242836;28;20052;-62
2023/10/24 03:22:49;;;;;;;36.45;17.48;;;;;;;;;;6242432;28;20619;-62
2023/10/24 03:25:51;;;;;;;34.97;16.77;;;;;;;;;;6241195;28;20119;-62
2023/10/24 03:28:52;;;;;;;38.13;16.95;;;;;;;;;;6243817;28;20126;-63
2023/10/24 03:31:52;;;;;;;34.92;17.92;;;;;;;;;;6242070;28;20053;-63
2023/10/24 03:34:53;;;;;;;36.15;17.17;;;;;;;;;;6247586;28;20126;-62
2023/10/24 03:37:54;;;;;;;38.30;18.25;;;;;;;;;;6243139;28;20056;-62
2023/10/24 03:40:55;;;;;;;34.97;16.88;;;;;;;;;;6240390;28;20057;-63
2023/10/24 03:43:55;;;;;;;34.90;17.55;;;;;;;;;;6245744;28;20049;-63
2023/10/24 03:46:56;;;;;;;38.30;18.23;;;;;;;;;;6243000;28;20125;-62
2023/10/24 03:49:56;;;;;;;36.85;17.42;;;;;;;;;;6241825;28;20060;-62
2023/10/24 03:52:57;;;;;;;35.85;17.52;;;;;;;;;;6242979;28;20147;-62
2023/10/24 03:55:58;;;;;;;40.53;17.48;;;;;;;;;;6242779;28;20476;-62
2023/10/24 03:58:59;;;;;;;34.60;17.42;;;;;;;;;;6241546;28;20057;-62
2023/10/24 04:02:00;;;;;;;37.10;17.75;;;;;;;;;;6240035;28;20764;-62
2023/10/24 04:05:03;;;;;;;32.95;16.02;;;;;;;;;;6241355;28;20038;-61
2023/10/24 04:08:03;;;;;;;36.22;16.83;;;;;;;;;;6241956;28;20377;-62
2023/10/24 04:11:12;;;;;;;32.88;16.92;;;;;;;;;;6246654;28;20391;-62
2023/10/24 04:14:12;;;;;;;31.90;17.23;;;;;;;;;;6250215;28;20046;-62
2023/10/24 04:17:13;;;;;;;33.80;16.13;;;;;;;;;;6253188;28;20044;-62
2023/10/24 04:20:13;;;;;;;33.90;16.70;;;;;;;;;;6240979;28;20370;-63
2023/10/24 04:23:14;;;;;;;31.55;16.35;;;;;;;;;;6241087;28;20818;-62
2023/10/24 04:26:15;;;;;;;34.25;16.58;;;;;;;;;;6241015;28;20045;-62
2023/10/24 04:29:16;;;;;;;39.88;18.20;;;;;;;;;;6252475;28;20046;-64
2023/10/24 04:32:17;;;;;;;35.33;17.58;;;;;;;;;;6250132;28;20055;-62
2023/10/24 04:35:18;;;;;;;33.38;16.60;;;;;;;;;;6250318;28;20057;-63
2023/10/24 04:38:18;;;;;;;31.80;15.32;;;;;;;;;;6250281;28;20052;-61
2023/10/24 04:41:19;;;;;;;34.50;17.27;;;;;;;;;;6249200;28;20045;-62
2023/10/24 04:44:20;;;;;;;40.08;21.00;;;;;;;;;;6249276;28;20049;-62
2023/10/24 04:47:21;;;;;;;39.15;19.15;;;;;;;;;;6250020;28;20045;-62
2023/10/24 04:50:22;;;;;;;50.40;27.67;;;;;;;;;;6247136;28;20391;-62
2023/10/24 04:53:23;;;;;;;34.85;18.05;;;;;;;;;;6247158;28;20565;-63
2023/10/24 04:56:24;;;;;;;35.70;16.48;;;;;;;;;;6246537;28;20045;-62
2023/10/24 04:59:25;;;;;;;34.00;16.38;;;;;;;;;;6247640;28;20067;-62
2023/10/24 05:02:25;;;;;;;30.92;15.60;;;;;;;;;;6247962;28;20398;-62
2023/10/24 05:05:27;;;;;;;32.33;16.13;;;;;;;;;;6250003;28;20205;-62
2023/10/24 05:08:28;;;;;;;30.05;15.73;;;;;;;;;;6250050;28;20052;-62
2023/10/24 05:11:28;;;;;;;29.08;16.58;;;;;;;;;;6250232;28;20160;-62
2023/10/24 05:14:29;;;;;;;32.92;18.30;;;;;;;;;;6248415;28;20068;-62
2023/10/24 05:17:30;;;;;;;36.53;19.27;;;;;;;;;;6249473;28;20075;-62
2023/10/24 05:20:31;;;;;;;30.15;15.07;;;;;;;;;;6250331;28;20054;-61
2023/10/24 05:23:31;;;;;;;28.15;14.93;;;;;;;;;;6249657;28;20048;-62
2023/10/24 05:26:32;;;;;;;31.48;15.13;;;;;;;;;;6249562;28;20512;-62
2023/10/24 05:29:35;;;;;;;40.08;19.52;;;;;;;;;;6250123;28;20108;-62
2023/10/24 05:32:37;;;;;;;33.63;18.10;;;;;;;;;;6265976;28;20049;-62
2023/10/24 05:35:37;;;;;;;34.03;18.23;;;;;;;;;;6248514;28;20124;-63
2023/10/24 05:38:38;;;;;;;36.13;21.05;;;;;;;;;;6250000;28;20393;-62
2023/10/24 05:41:38;;;;;;;40.15;21.48;;;;;;;;;;6248229;28;20512;-62
2023/10/24 05:44:39;;;;;;;41.55;22.50;;;;;;;;;;6246534;28;20042;-62
2023/10/24 05:47:40;;;;;;;39.30;20.60;;;;;;;;;;6249719;28;20679;-62
2023/10/24 05:50:43;;;;;;;32.92;19.55;;;;;;;;;;6245109;28;20390;-62
2023/10/24 05:53:43;;;;;;;33.20;18.45;;;;;;;;;;6244371;28;20132;-60
2023/10/24 05:56:44;;;;;;;38.10;22.35;;;;;;;;;;6244988;28;20107;-62
2023/10/24 05:59:45;;;;;;;38.25;20.75;;;;;;;;;;6242814;28;20119;-61
2023/10/24 06:02:45;;;;;;;41.83;19.73;;;;;;;;;;6243134;28;20041;-62
2023/10/24 06:05:46;;;;;;;41.28;23.60;;;;;;;;;;6241932;28;20041;-62
2023/10/24 06:08:47;;;;;;;47.78;23.67;;;;;;;;;;6246168;28;20476;-62
2023/10/24 06:11:48;;;;;;;39.97;19.83;;;;;;;;;;6244703;28;20053;-63
2023/10/24 06:14:48;;;;;;;39.67;20.60;;;;;;;;;;6243424;28;20041;-62
2023/10/24 06:17:49;;;;;;;32.38;18.38;;;;;;;;;;6244032;28;20400;-64
2023/10/24 06:20:49;;;;;;;30.88;16.45;;;;;;;;;;6242239;28;20050;-62
2023/10/24 06:23:51;;;;;;;33.58;16.83;;;;;;;;;;6242883;28;20157;-63
2023/10/24 06:26:52;;;;;;;30.17;15.52;;;;;;;;;;6243866;28;20799;-63
2023/10/24 06:29:53;;;;;;;32.50;17.02;;;;;;;;;;6245373;28;20223;-62
2023/10/24 06:32:53;;;;;;;29.98;15.48;;;;;;;;;;6264563;28;20053;-62
2023/10/24 06:35:54;;;;;;;27.45;14.35;;;;;;;;;;6243812;28;20041;-62
2023/10/24 06:38:55;;;;;;;33.42;14.95;;;;;;;;;;6245863;28;20042;-61
2023/10/24 06:41:55;;;;;;;28.25;14.70;;;;;;;;;;6243422;28;20049;-64
2023/10/24 06:44:56;;;;;;;32.67;16.33;;;;;;;;;;6244263;28;20060;-62
2023/10/24 06:47:57;;;;;;;28.15;14.05;;;;;;;;;;6242692;28;20057;-63
2023/10/24 06:50:58;;;;;;;28.52;13.50;;;;;;;;;;6244378;28;20092;-63
2023/10/24 06:53:59;;;;;;;33.67;14.90;;;;;;;;;;6243665;28;20054;-63
2023/10/24 06:56:59;;;;;;;26.13;14.32;;;;;;;;;;6242431;28;20078;-62
2023/10/24 07:00:00;;;;;;;42.50;14.57;;;;;;;;;;6242538;28;20100;-64
2023/10/24 07:03:00;;;;;;;36.92;14.45;;;;;;;;;;6242530;28;20053;-63
2023/10/24 07:06:01;;;;;;;51.63;20.92;;;;;;;;;;6243201;28;20095;-63
2023/10/24 07:09:02;;;;;;;43.78;16.42;;;;;;;;;;6243609;28;20541;-64
2023/10/24 07:12:03;;;;;;;35.83;14.30;;;;;;;;;;6241589;28;20052;-63
2023/10/24 07:15:04;;;;;;;21.80;10.80;;;;;;;;;;6242520;28;20499;-63
2023/10/24 07:18:05;;;;;;;37.80;16.27;;;;;;;;;;6243182;28;20048;-63
2023/10/24 07:21:06;;;;;;;27.08;13.07;;;;;;;;;;6242660;28;20041;-63
2023/10/24 07:24:06;;;;;;;24.15;11.35;;;;;;;;;;6242755;28;20145;-62
2023/10/24 07:27:09;;;;;;;27.50;11.77;;;;;;;;;;6244251;28;20037;-63
2023/10/24 07:30:10;;;;;;;40.75;13.15;;;;;;;;;;6240996;28;20403;-63
2023/10/24 07:33:10;;;;;;;33.47;13.75;;;;;;;;;;6241866;28;20131;-63
2023/10/24 07:36:11;;;;;;;24.48;10.13;;;;;;;;;;6242171;28;20152;-63
2023/10/24 07:39:14;;;;;;;26.85;11.20;;;;;;;;;;6242012;28;20064;-63
2023/10/24 07:42:14;;;;;;;29.88;11.98;;;;;;;;;;6242111;28;20052;-63
2023/10/24 07:45:15;;;;;;;38.22;13.85;;;;;;;;;;6241680;28;20041;-63
2023/10/24 07:48:16;;;;;;;32.33;12.73;;;;;;;;;;6241495;28;20053;-63
2023/10/24 07:51:16;;;;;;;29.30;11.90;;;;;;;;;;6242827;28;20400;-63
2023/10/24 07:54:17;;;;;;;28.85;10.90;;;;;;;;;;6241220;28;20179;-64
2023/10/24 07:57:17;;;;;;;25.27;9.65;;;;;;;;;;6240641;28;20046;-64
2023/10/24 08:00:18;;;;;;;24.95;11.98;;;;;;;;;;6242226;28;20098;-64
2023/10/24 08:03:19;;;;;;;25.90;11.73;;;;;;;;;;6241195;28;20057;-64
2023/10/24 08:06:19;;;;;;;25.55;11.77;;;;;;;;;;6241629;28;20048;-64
2023/10/24 08:09:20;;;;;;;16.10;8.50;;;;;;;;;;6238515;28;20045;-63
2023/10/24 08:12:21;;;;;;;18.52;8.13;;;;;;;;;;6239346;28;20041;-64
2023/10/24 08:15:21;;;;;;;15.93;7.93;;;;;;;;;;6240263;28;20037;-63
2023/10/24 08:18:22;;;;;;;26.63;10.77;;;;;;;;;;6242368;28;20076;-63
2023/10/24 08:21:23;;;;;;;19.15;8.27;;;;;;;;;;6241025;28;20052;-63
2023/10/24 08:24:23;;;;;;;17.02;8.20;;;;;;;;;;6239872;28;20056;-64
2023/10/24 08:27:24;;;;;;;15.73;8.13;;;;;;;;;;6242418;28;20085;-64
2023/10/24 08:30:25;;;;;;;19.58;8.00;;;;;;;;;;6240912;28;20045;-63
2023/10/24 08:33:25;;;;;;;19.67;8.27;;;;;;;;;;6239291;28;20038;-64
2023/10/24 08:36:26;;;;;;;22.73;9.25;;;;;;;;;;6242668;28;20087;-64
2023/10/24 08:39:26;;;;;;;18.70;8.57;;;;;;;;;;6240953;28;20574;-63
2023/10/24 08:42:29;;;;;;;17.88;8.10;;;;;;;;;;6241541;28;20544;-64
2023/10/24 08:45:30;;;;;;;16.35;8.52;;;;;;;;;;6241472;28;20042;-64
2023/10/24 08:48:34;;;;;;;17.10;7.45;;;;;;;;;;6242083;28;20045;-63
2023/10/24 08:51:34;;;;;;;15.63;7.05;;;;;;;;;;6242116;28;20057;-63
2023/10/24 08:54:35;;;;;;;15.90;7.65;;;;;;;;;;6241291;28;20042;-63
2023/10/24 08:57:40;;;;;;;18.38;9.10;;;;;;;;;;6242439;28;20053;-63
2023/10/24 09:00:42;;;;;;;21.33;9.90;;;;;;;;;;6240825;28;20049;-63
2023/10/24 09:03:42;;;;;;;18.00;9.27;;;;;;;;;;6237043;28;20127;-63
2023/10/24 09:06:43;;;;;;;21.85;9.50;;;;;;;;;;6241130;28;20496;-64
2023/10/24 09:09:43;;;;;;;30.27;11.95;;;;;;;;;;6241572;28;20056;-65
2023/10/24 09:12:44;;;;;;;22.63;10.02;;;;;;;;;;6240727;28;20053;-63
2023/10/24 09:16:04;;;;;;;19.80;8.85;;;;;;;;;;6240262;28;20041;-63
2023/10/24 09:19:11;;;;;;;20.42;8.65;;;;;;;;;;6244141;28;20164;-63
2023/10/24 09:22:18;;;;;;;16.48;7.72;;;;;;;;;;6246239;28;20061;-63
2023/10/24 09:25:22;;;;;;;16.33;7.65;;;;;;;;;;6245261;28;20041;-63
2023/10/24 09:28:22;;;;;;;19.10;8.93;;;;;;;;;;6245583;28;20055;-63
2023/10/24 09:31:23;;;;;;;28.50;9.95;;;;;;;;;;6245677;28;20520;-63
2023/10/24 09:34:24;;;;;;;21.08;8.70;;;;;;;;;;6246355;28;20357;-63
2023/10/24 09:37:25;;;;;;;20.33;8.40;;;;;;;;;;6244292;28;20049;-62
2023/10/24 09:40:34;;;;;;;29.77;10.25;;;;;;;;;;6244999;28;20048;-63
2023/10/24 09:43:38;;;;;;;23.08;8.30;;;;;;;;;;6244353;28;20133;-63
2023/10/24 09:46:39;;;;;;;18.77;7.07;;;;;;;;;;6243869;28;20045;-63
2023/10/24 09:49:41;;;;;;;25.10;8.50;;;;;;;;;;6243756;28;20404;-63
2023/10/24 09:52:42;;;;;;;15.07;6.70;;;;;;;;;;6244115;28;20056;-63
2023/10/24 09:55:48;;;;;;;18.92;7.00;;;;;;;;;;6244925;28;20554;-63
2023/10/24 09:58:50;;;;;;;17.73;6.88;;;;;;;;;;6243892;28;20056;-63
2023/10/24 10:01:51;;;;;;;15.52;7.40;;;;;;;;;;6242624;28;20049;-63
2023/10/24 10:04:52;;;;;;;12.48;6.25;;;;;;;;;;6243784;28;20046;-62
2023/10/24 10:07:54;;;;;;;13.88;6.18;;;;;;;;;;6243514;28;20080;-63
2023/10/24 10:10:54;;;;;;;15.20;6.78;;;;;;;;;;6246097;28;20171;-64
2023/10/24 10:14:07;;;;;;;16.60;6.70;;;;;;;;;;6241911;28;20121;-63
2023/10/24 10:17:25;;;;;;;12.30;6.43;;;;;;;;;;6243567;28;20380;-62
2023/10/24 10:20:41;;;;;;;17.08;6.72;;;;;;;;;;6243387;28;20047;-63
2023/10/24 10:23:44;;;;;;;13.50;6.25;;;;;;;;;;6242494;28;20077;-63
2023/10/24 10:27:15;;;;;;;16.17;8.70;;;;;;;;;;6243969;28;20476;-63
2023/10/24 10:30:38;;;;;;;15.02;7.05;;;;;;;;;;6240801;28;20049;-62
2023/10/24 10:33:40;;;;;;;15.77;6.45;;;;;;;;;;6242088;28;20049;-63
2023/10/24 10:36:53;;;;;;;12.02;5.75;;;;;;;;;;6243851;28;20059;-63
2023/10/24 10:40:27;;;;;;;14.10;5.88;;;;;;;;;;6241275;28;20059;-62
2023/10/24 10:43:29;;;;;;;13.23;5.18;;;;;;;;;;6243784;28;20050;-62
2023/10/24 10:46:32;;;;;;;15.50;5.80;;;;;;;;;;6241076;28;20397;-63
2023/10/24 10:49:43;;;;;;;11.63;5.30;;;;;;;;;;6243330;28;20049;-62
2023/10/24 10:53:13;;;;;;;12.48;4.45;;;;;;;;;;6244202;28;20144;-63
2023/10/24 10:56:23;;;;;;;10.70;5.05;;;;;;;;;;6238328;28;20161;-62
2023/10/24 10:59:39;;;;;;;11.77;5.10;;;;;;;;;;6241578;28;20065;-62
2023/10/24 11:03:05;;;;;;;10.77;4.40;;;;;;;;;;6242993;28;20049;-62
2023/10/24 11:06:11;;;;;;;10.90;6.20;;;;;;;;;;6244586;28;20098;-61
2023/10/24 11:09:13;;;;;;;11.60;4.72;;;;;;;;;;6242692;28;20049;-62
2023/10/24 11:12:30;;;;;;;10.07;4.53;;;;;;;;;;6240967;28;20054;-63
2023/10/24 11:15:30;;;;;;;10.40;4.95;;;;;;;;;;6242868;28;20052;-61
2023/10/24 11:18:32;;;;;;;9.77;4.65;;;;;;;;;;6242501;28;20064;-62
2023/10/24 11:21:34;;;;;;;9.52;4.68;;;;;;;;;;6242301;28;20492;-62
2023/10/24 11:24:35;;;;;;;;;;;;;;;;;;6242380;28;20480;-62
2023/10/24 11:27:35;;;;;;;14.48;4.95;;;;;;;;;;6242150;28;19939;-64
2023/10/24 11:30:36;;;;;;;17.45;5.28;;;;;;;;;;6241852;28;20052;-62
2023/10/24 11:33:36;;;;;;;11.80;5.65;;;;;;;;;;6243130;28;20046;-62
2023/10/24 11:36:39;;;;;;;12.80;5.70;;;;;;;;;;6241340;28;20119;-62
2023/10/24 11:39:42;;;;;;;11.05;5.10;;;;;;;;;;6242126;28;20044;-62
2023/10/24 11:42:43;;;;;;;12.20;5.15;;;;;;;;;;6241464;28;20408;-62
2023/10/24 11:45:44;;;;;;;13.55;5.97;;;;;;;;;;6243379;28;20057;-63
2023/10/24 11:48:45;;;;;;;19.45;5.95;;;;;;;;;;6242591;28;20053;-63
2023/10/24 11:51:48;;;;;;;14.63;6.07;;;;;;;;;;6240365;28;20573;-62
2023/10/24 11:54:54;;;;;;;14.57;5.75;;;;;;;;;;6246821;28;20057;-62
2023/10/24 11:57:55;;;;;;;15.20;5.55;;;;;;;;;;6249864;28;20041;-62
2023/10/24 12:00:58;;;;;;;13.15;6.13;;;;;;;;;;6249296;28;20041;-61
2023/10/24 12:04:00;;;;;;;11.05;5.28;;;;;;;;;;6251069;28;20056;-64
2023/10/24 12:07:07;;;;;;;15.30;5.80;;;;;;;;;;6252645;28;20056;-62
2023/10/24 12:10:09;;;;;;;12.02;5.40;;;;;;;;;;6253243;28;20102;-63
2023/10/24 12:13:11;;;;;;;18.15;7.38;;;;;;;;;;6249528;28;20044;-63
2023/10/24 12:16:12;;;;;;;14.70;6.32;;;;;;;;;;6253238;28;20180;-62
2023/10/24 12:19:14;;;;;;;19.05;7.07;;;;;;;;;;6236047;28;20057;-62
2023/10/24 12:22:15;;;;;;;25.13;8.65;;;;;;;;;;6251483;28;20080;-63
2023/10/24 12:25:17;;;;;;;24.73;8.45;;;;;;;;;;6248700;28;20057;-63
2023/10/24 12:28:18;;;;;;;23.60;9.20;;;;;;;;;;6252916;28;20084;-62
2023/10/24 12:31:19;;;;;;;23.10;9.88;;;;;;;;;;6250713;28;20060;-62
2023/10/24 12:34:19;;;;;;;14.97;7.17;;;;;;;;;;6250417;28;20504;-62
2023/10/24 12:37:20;;;;;;;15.27;7.20;;;;;;;;;;6253433;28;20045;-62
2023/10/24 12:40:20;;;;;;;20.42;7.82;;;;;;;;;;6249161;28;20435;-63
2023/10/24 12:43:21;;;;;;;17.23;7.20;;;;;;;;;;6250394;28;20051;-62
2023/10/24 12:46:22;;;;;;;26.25;9.43;;;;;;;;;;6251766;28;20045;-62
2023/10/24 12:49:23;;;;;;;35.17;10.52;;;;;;;;;;6253009;28;20491;-63
2023/10/24 12:52:24;;;;;;;18.25;7.53;;;;;;;;;;6250541;28;20477;-61
2023/10/24 12:55:25;;;;;;;23.73;8.82;;;;;;;;;;6250938;28;20486;-61
2023/10/24 12:58:25;;;;;;;24.15;9.05;;;;;;;;;;6256491;28;20045;-61
2023/10/24 13:01:29;;;;;;;20.98;8.90;;;;;;;;;;6254589;28;20052;-62
2023/10/24 13:04:29;;;;;;;16.30;7.07;;;;;;;;;;6253089;28;20070;-63
2023/10/24 13:07:30;;;;;;;19.40;9.18;;;;;;;;;;6258090;28;20040;-63
2023/10/24 13:10:30;;;;;;;18.73;8.50;;;;;;;;;;6255274;28;20041;-63
2023/10/24 13:13:31;;;;;;;21.45;10.02;;;;;;;;;;6256659;28;20051;-63
2023/10/24 13:16:31;;;;;;;17.55;8.95;;;;;;;;;;6256279;28;20442;-62
2023/10/24 13:19:32;;;;;;;22.15;10.73;;;;;;;;;;6255655;28;20045;-63
2023/10/24 13:22:33;;;;;;;17.38;9.60;;;;;;;;;;6255426;28;20413;-63
2023/10/24 13:25:34;;;;;;;23.10;10.70;;;;;;;;;;6252359;28;20096;-62
2023/10/24 13:28:36;;;;;;;17.63;9.95;;;;;;;;;;6256717;28;20461;-62
2023/10/24 13:31:37;;;;;;;18.17;8.48;;;;;;;;;;6253794;28;20168;-63
2023/10/24 13:34:37;;;;;;;15.90;9.77;;;;;;;;;;6232104;28;20947;-62
2023/10/24 13:37:38;;;;;;;17.48;9.52;;;;;;;;;;6255045;28;20177;-62
2023/10/24 13:40:38;;;;;;;19.05;9.57;;;;;;;;;;6254374;28;20294;-62
2023/10/24 13:43:40;;;;;;;17.52;8.63;;;;;;;;;;6251823;28;20057;-62
2023/10/24 13:46:41;;;;;;;25.00;11.35;;;;;;;;;;6255927;28;20053;-62
2023/10/24 13:49:42;;;;;;;20.58;9.48;;;;;;;;;;6254012;28;20498;-61
2023/10/24 13:52:42;;;;;;;23.45;9.40;;;;;;;;;;6255622;28;20053;-62
2023/10/24 13:55:44;;;;;;;19.98;8.90;;;;;;;;;;6253804;28;20053;-62
2023/10/24 13:58:46;;;;;;;19.15;9.00;;;;;;;;;;6253562;28;20053;-64
2023/10/24 14:01:47;;;;;;;19.55;9.07;;;;;;;;;;6256687;28;20055;-62
2023/10/24 14:04:47;;;;;;;17.00;8.48;;;;;;;;;;6252259;28;20064;-63
2023/10/24 14:07:48;;;;;;;20.77;11.20;;;;;;;;;;6246343;28;20530;-63
2023/10/24 14:10:49;;;;;;;17.73;8.75;;;;;;;;;;6256546;28;20049;-62
2023/10/24 14:13:50;;;;;;;15.68;9.02;;;;;;;;;;6254129;28;20143;-62
2023/10/24 14:16:50;;;;;;;19.38;9.80;;;;;;;;;;6256855;28;20530;-61
2023/10/24 14:19:51;;;;;;;19.60;10.20;;;;;;;;;;6252349;28;20094;-62
2023/10/24 14:22:52;;;;;;;24.10;10.30;;;;;;;;;;6254168;28;20049;-62
2023/10/24 14:25:52;;;;;;;19.00;10.35;;;;;;;;;;6253652;28;20160;-62
2023/10/24 14:28:53;;;;;;;22.02;10.23;;;;;;;;;;6257083;28;20049;-61
2023/10/24 14:31:53;;;;;;;22.95;10.35;;;;;;;;;;6253163;28;20037;-61
2023/10/24 14:34:54;;;;;;;25.48;12.50;;;;;;;;;;6254929;28;20045;-62
2023/10/24 14:37:57;;;;;;;34.72;16.15;;;;;;;;;;6254908;28;20797;-61
2023/10/24 14:40:59;;;;;;;32.15;15.32;;;;;;;;;;6256303;28;20544;-61
2023/10/24 14:43:59;;;;;;;27.08;14.00;;;;;;;;;;6254202;28;20147;-61
2023/10/24 14:47:00;;;;;;;21.05;10.27;;;;;;;;;;6256935;28;20423;-61
2023/10/24 14:50:02;;;;;;;24.33;10.77;;;;;;;;;;6253597;28;20217;-61
2023/10/24 14:53:02;;;;;;;21.38;10.48;;;;;;;;;;6252562;28;20048;-61
2023/10/24 14:56:04;;;;;;;25.58;12.35;;;;;;;;;;6252927;28;20076;-61
2023/10/24 14:59:04;;;;;;;25.30;12.43;;;;;;;;;;6253481;28;20049;-61
2023/10/24 15:02:06;;;;;;;25.67;12.25;;;;;;;;;;6254406;28;20503;-61
2023/10/24 15:05:07;;;;;;;23.38;11.05;;;;;;;;;;6251826;28;20040;-61
2023/10/24 15:08:10;;;;;;;26.70;13.00;;;;;;;;;;6253069;28;20068;-61
2023/10/24 15:11:10;;;;;;;29.25;12.52;;;;;;;;;;6254822;28;20490;-61
2023/10/24 15:14:11;;;;;;;29.17;14.00;;;;;;;;;;6250845;28;20581;-62
2023/10/24 15:17:12;;;;;;;27.70;14.57;;;;;;;;;;6253985;28;20372;-63
2023/10/24 15:20:12;;;;;;;31.45;17.70;;;;;;;;;;6253714;28;20053;-62
2023/10/24 15:23:13;;;;;;;31.83;17.48;;;;;;;;;;6254511;28;20122;-61
2023/10/24 15:26:14;;;;;;;30.88;16.30;;;;;;;;;;6254745;28;20076;-65
2023/10/24 15:29:15;;;;;;;28.40;14.73;;;;;;;;;;6256171;28;20079;-65
2023/10/24 15:32:16;;;;;;;31.80;16.42;;;;;;;;;;6255697;28;20143;-63
2023/10/24 15:35:18;;;;;;;32.90;16.75;;;;;;;;;;6253227;28;20076;-65
2023/10/24 15:38:19;;;;;;;;;;;;;;;;;;6257612;28;20047;-64
2023/10/24 15:41:19;;;;;;;38.08;19.25;;;;;;;;;;6255667;28;20379;-64
2023/10/24 15:44:21;;;;;;;36.58;19.17;;;;;;;;;;6252917;28;20531;-64
2023/10/24 15:47:22;;;;;;;37.13;19.08;;;;;;;;;;6256555;28;20044;-62
2023/10/24 15:50:24;;;;;;;;;;;;;;;;;;6256009;28;20195;-62
2023/10/24 15:53:25;;;;;;;99.18;46.95;;;;;;;;;;6253754;28;19928;-63
2023/10/24 15:56:27;;;;;;;119.00;55.83;;;;;;;;;;6256972;28;20090;-61
2023/10/24 15:59:27;;;;;;;82.05;39.25;;;;;;;;;;6255659;28;20135;-64
2023/10/24 16:02:28;;;;;;;65.80;35.45;;;;;;;;;;6255754;28;20742;-65
2023/10/24 16:05:28;;;;;;;60.63;29.40;;;;;;;;;;6254135;28;20061;-66
2023/10/24 16:08:29;;;;;;;44.38;21.80;;;;;;;;;;6251266;28;20041;-65
2023/10/24 16:11:29;;;;;;;50.30;24.83;;;;;;;;;;6254569;28;20676;-64
2023/10/24 16:14:30;;;;;;;48.20;23.60;;;;;;;;;;6251410;28;20544;-65
2023/10/24 16:17:30;;;;;;;58.53;26.50;;;;;;;;;;6256325;28;20056;-66
2023/10/24 16:20:32;;;;;;;54.67;26.08;;;;;;;;;;6255601;28;20098;-66
2023/10/24 16:23:32;;;;;;;49.75;24.92;;;;;;;;;;6250769;28;20048;-66
2023/10/24 16:26:33;;;;;;;53.78;28.30;;;;;;;;;;6251699;28;20067;-66
2023/10/24 16:29:33;;;;;;;51.40;26.00;;;;;;;;;;6252666;28;20435;-67
2023/10/24 16:32:34;;;;;;;53.63;25.25;;;;;;;;;;6251642;28;20071;-66
2023/10/24 16:35:35;;;;;;;60.75;33.33;;;;;;;;;;6251277;28;20426;-66
2023/10/24 16:38:36;;;;;;;54.33;31.08;;;;;;;;;;6251777;28;20140;-66
2023/10/24 16:41:36;;;;;;;59.05;28.10;;;;;;;;;;6252087;28;20060;-67
2023/10/24 16:44:37;;;;;;;56.38;27.45;;;;;;;;;;6250525;28;20519;-63
2023/10/24 16:47:38;;;;;;;53.25;28.00;;;;;;;;;;6253413;28;20583;-64
2023/10/24 16:50:38;;;;;;;56.38;28.52;;;;;;;;;;6252213;28;20585;-64
2023/10/24 16:53:40;;;;;;;51.20;27.77;;;;;;;;;;6250360;28;20049;-63
2023/10/24 16:56:41;;;;;;;81.47;39.70;;;;;;;;;;6253640;28;20049;-63
2023/10/24 16:59:41;;;;;;;68.35;33.45;;;;;;;;;;6234301;28;20045;-64
2023/10/24 17:02:42;;;;;;;69.70;33.40;;;;;;;;;;6250487;28;20072;-65
2023/10/24 17:05:43;;;;;;;64.72;33.65;;;;;;;;;;6250719;28;20087;-65
2023/10/24 17:08:44;;;;;;;71.07;41.55;;;;;;;;;;6250992;28;20056;-66
2023/10/24 17:11:45;;;;;;;67.93;33.05;;;;;;;;;;6238132;28;20053;-66
2023/10/24 17:14:45;;;;;;;60.22;32.17;;;;;;;;;;6233680;28;20186;-64
2023/10/24 17:17:46;;;;;;;60.42;31.02;;;;;;;;;;6254128;28;20079;-65
2023/10/24 17:20:49;;;;;;;56.90;29.67;;;;;;;;;;6238881;28;20096;-66
2023/10/24 17:23:49;;;;;;;61.63;31.52;;;;;;;;;;6250997;28;20480;-65
2023/10/24 17:26:50;;;;;;;62.47;31.23;;;;;;;;;;6252845;28;20053;-64
2023/10/24 17:29:51;;;;;;;63.25;30.15;;;;;;;;;;6252003;28;20130;-64
2023/10/24 17:32:53;;;;;;;61.40;30.63;;;;;;;;;;6253777;28;20049;-66
2023/10/24 17:35:53;;;;;;;62.17;32.38;;;;;;;;;;6251404;28;20048;-65
2023/10/24 17:38:54;;;;;;;62.30;32.42;;;;;;;;;;6255158;28;20547;-64
2023/10/24 17:41:55;;;;;;;67.25;31.33;;;;;;;;;;6257206;28;20053;-65